Time;durP1;ratioP1;P1;durP2;ratioP2;P2;SDS_P1;SDS_P2;PMS_P1;PMS_P2;Temp;Humidity;BMP_temperature;BMP_pressure;BME280_temperature;BME280_humidity;BME280_pressure;Samples;Min_cycle;Max_cycle;Signal;HPM_P1;HPM_P2
2023/09/10 00:00:46;;;;;;;26.30;23.77;;;18.00;99.90;;;-141.84;77.29;20870.81;5035472;28;20712;-60
2023/09/10 00:03:16;;;;;;;27.63;24.85;;;18.00;99.90;;;-141.84;77.28;20832.19;5042871;28;20618;-59
2023/09/10 00:05:44;;;;;;;26.35;23.75;;;18.00;99.90;;;-141.84;77.60;20870.81;5043063;28;20324;-59
2023/09/10 00:08:12;;;;;;;26.33;23.73;;;18.00;99.90;;;-141.84;78.17;20822.03;5042710;28;20237;-60
2023/09/10 00:10:41;;;;;;;27.20;24.25;;;17.90;99.90;;;-141.84;78.66;20807.78;5035220;28;20653;-61
2023/09/10 00:13:10;;;;;;;26.77;24.15;;;17.90;99.90;;;-141.84;79.06;20826.09;5042076;28;20278;-59
2023/09/10 00:15:39;;;;;;;26.50;23.83;;;17.90;99.90;;;-141.84;79.35;20805.75;5042759;28;20655;-59
2023/09/10 00:18:08;;;;;;;26.70;23.98;;;17.80;99.90;;;-141.84;79.64;20791.53;5031939;28;20202;-60
2023/09/10 00:20:37;;;;;;;26.90;24.20;;;17.80;99.90;;;-141.84;79.77;20777.28;5043064;28;20251;-59
2023/09/10 00:23:06;;;;;;;25.75;23.10;;;17.60;99.90;;;-141.84;80.19;20744.78;5039176;28;20264;-60
2023/09/10 00:25:35;;;;;;;27.05;24.30;;;17.80;99.90;;;-141.84;80.51;20777.28;5042662;28;20417;-59
2023/09/10 00:28:03;;;;;;;25.85;23.15;;;17.70;99.90;;;-141.84;80.93;20763.06;5042266;28;20605;-60
2023/09/10 00:30:32;;;;;;;25.00;22.25;;;17.70;99.90;;;-141.84;81.06;20732.56;5042537;28;20709;-60
2023/09/10 00:33:00;;;;;;;24.65;22.25;;;17.60;99.90;;;-141.84;81.48;20732.56;5035386;28;26008;-59
2023/09/10 00:35:28;;;;;;;24.30;21.98;;;17.60;99.90;;;-141.84;81.35;20765.09;5043152;28;20197;-60
2023/09/10 00:37:58;;;;;;;26.40;23.67;;;17.60;99.90;;;-141.84;81.26;20716.31;5042270;28;20709;-60
2023/09/10 00:40:29;;;;;;;25.70;23.10;;;17.60;99.90;;;-141.84;81.52;20734.59;5041752;28;20555;-61
2023/09/10 00:42:57;;;;;;;25.88;22.55;;;17.60;99.90;;;-141.84;81.86;20695.97;5033980;28;20229;-60
2023/09/10 00:45:26;;;;;;;23.88;21.48;;;17.60;99.90;;;-141.84;82.09;20748.84;5041170;28;20248;-60
2023/09/10 00:47:55;;;;;;;23.13;20.83;;;17.60;99.90;;;-141.84;82.08;20673.63;5042569;28;20570;-60
2023/09/10 00:50:24;;;;;;;23.50;21.15;;;17.50;99.90;;;-141.84;82.37;20659.38;5030261;28;20226;-60
2023/09/10 00:53:00;;;;;;;22.38;20.23;;;17.50;99.90;;;-141.84;82.29;20720.38;5014533;28;20257;-60
2023/09/10 00:55:32;;;;;;;21.77;19.55;;;17.50;99.90;;;-141.84;82.04;20691.91;5038729;28;20283;-60
2023/09/10 00:58:02;;;;;;;21.08;19.08;;;17.50;99.90;;;-141.84;82.41;20720.38;5041688;28;20229;-59
2023/09/10 01:00:31;;;;;;;19.80;17.88;;;17.50;99.90;;;-141.84;82.68;20704.13;5041813;28;20229;-59
2023/09/10 01:03:00;;;;;;;18.70;17.00;;;17.50;99.90;;;-141.84;82.89;20665.50;5034037;28;20312;-61
2023/09/10 01:05:29;;;;;;;19.73;17.63;;;17.50;99.90;;;-141.84;83.19;20683.78;5042409;28;20225;-59
2023/09/10 01:07:59;;;;;;;20.20;18.15;;;17.50;99.90;;;-141.84;83.40;20616.69;5042032;28;20327;-60
2023/09/10 01:10:37;;;;;;;19.88;17.83;;;17.40;99.90;;;-141.84;83.70;20632.97;5042084;28;20232;-60
2023/09/10 01:13:15;;;;;;;20.77;18.02;;;17.40;99.90;;;-141.84;83.73;20653.28;5038681;28;20244;-61
2023/09/10 01:15:55;;;;;;;20.10;18.13;;;17.40;99.90;;;-141.84;83.57;20641.09;5034423;28;20245;-60
2023/09/10 01:18:32;;;;;;;19.38;17.38;;;17.30;99.90;;;-141.84;83.73;20685.81;5036127;28;20253;-60
2023/09/10 01:21:22;;;;;;;19.27;17.27;;;17.30;99.90;;;-141.84;83.96;20620.78;5034381;28;22596;-60
2023/09/10 01:24:24;;;;;;;19.48;17.48;;;17.30;99.90;;;-141.84;84.25;20655.31;5042171;28;20657;-61
2023/09/10 01:26:58;;;;;;;17.80;16.08;;;17.30;99.90;;;-141.84;84.29;20608.56;5013982;28;20295;-60
2023/09/10 01:29:27;;;;;;;18.48;16.77;;;17.30;99.90;;;-141.84;84.84;20647.19;5023102;28;20198;-60
2023/09/10 01:32:01;;;;;;;17.98;16.25;;;17.30;99.90;;;-141.84;84.97;20610.59;5023861;28;20228;-61
2023/09/10 01:34:45;;;;;;;19.42;17.30;;;17.20;99.90;;;-141.84;84.85;20616.69;5023816;28;20241;-58
2023/09/10 01:37:22;;;;;;;19.30;16.65;;;17.20;99.90;;;-141.84;84.90;20580.13;5023555;28;20717;-58
2023/09/10 01:39:56;;;;;;;18.98;16.90;;;17.20;99.90;;;-141.84;85.20;20639.06;5029388;28;20720;-59
2023/09/10 01:42:26;;;;;;;17.85;15.73;;;17.20;99.90;;;-141.84;85.47;20604.50;5023071;28;20718;-59
2023/09/10 01:44:56;;;;;;;17.52;15.65;;;17.20;99.90;;;-141.84;85.67;20574.00;5017487;28;20291;-59
2023/09/10 01:47:24;;;;;;;18.50;16.58;;;17.10;99.90;;;-141.84;85.68;20618.72;5023469;28;20260;-59
2023/09/10 01:49:53;;;;;;;18.00;16.30;;;17.10;99.90;;;-141.84;85.65;20598.41;5031453;28;20260;-59
2023/09/10 01:52:22;;;;;;;18.98;16.85;;;17.00;99.90;;;-141.84;85.82;20582.16;5043054;28;20229;-60
2023/09/10 01:54:50;;;;;;;18.42;16.40;;;17.00;99.90;;;-141.84;85.88;20537.44;5038020;28;20263;-59
2023/09/10 01:57:19;;;;;;;18.88;16.92;;;17.00;99.90;;;-141.84;86.12;20555.72;5047376;28;20253;-58
2023/09/10 01:59:48;;;;;;;19.58;17.05;;;17.00;99.90;;;-141.84;86.14;20545.56;5047795;28;20320;-59
2023/09/10 02:02:17;;;;;;;18.80;16.85;;;17.00;99.90;;;-141.84;86.28;20521.16;5046886;28;20779;-58
2023/09/10 02:04:45;;;;;;;18.75;16.85;;;16.90;99.90;;;-141.84;86.23;20529.28;5039904;28;20225;-59
2023/09/10 02:07:13;;;;;;;18.10;16.30;;;16.90;99.90;;;-141.84;86.77;20525.22;5047010;28;20233;-60
2023/09/10 02:09:42;;;;;;;19.38;17.40;;;16.90;99.90;;;-141.84;86.91;20525.22;5046235;28;20227;-60
2023/09/10 02:12:10;;;;;;;18.13;16.15;;;16.80;99.90;;;-141.84;86.79;20502.88;5046732;28;20229;-60
2023/09/10 02:14:38;;;;;;;19.08;16.65;;;16.80;99.90;;;-141.84;86.36;20525.22;5045708;28;20217;-59
2023/09/10 02:17:09;;;;;;;18.17;16.38;;;16.80;99.90;;;-141.84;86.27;20545.56;5046612;28;20229;-59
2023/09/10 02:19:37;;;;;;;19.52;17.15;;;16.80;99.90;;;-141.84;86.25;20502.88;5046819;28;20700;-58
2023/09/10 02:22:05;;;;;;;18.42;16.58;;;16.70;99.90;;;-141.84;85.90;20529.28;5046976;28;20248;-59
2023/09/10 02:24:33;;;;;;;18.88;17.00;;;16.70;99.90;;;-141.84;85.52;20529.28;5046408;28;20264;-59
2023/09/10 02:27:02;;;;;;;18.88;16.98;;;16.70;99.90;;;-141.84;85.18;20506.94;5039622;28;20296;-59
2023/09/10 02:29:30;;;;;;;18.05;16.30;;;16.70;99.90;;;-141.84;84.92;20535.41;5047106;28;20617;-60
2023/09/10 02:31:58;;;;;;;18.00;16.17;;;16.60;99.90;;;-141.84;84.68;20484.56;5047164;28;20225;-58
2023/09/10 02:34:28;;;;;;;17.80;16.02;;;16.60;99.90;;;-141.84;84.55;20488.63;5046771;28;20235;-59
2023/09/10 02:36:56;;;;;;;17.33;15.52;;;16.60;99.90;;;-141.84;84.67;20462.22;5039433;28;20225;-59
2023/09/10 02:39:24;;;;;;;16.77;15.05;;;16.60;99.90;;;-141.84;84.37;20476.44;5046520;28;20252;-60
2023/09/10 02:41:52;;;;;;;17.42;15.75;;;16.50;99.90;;;-141.84;84.19;20464.25;5047168;28;20296;-59
2023/09/10 02:44:20;;;;;;;17.60;15.77;;;16.50;99.90;;;-141.84;83.80;20466.28;5046042;28;20316;-60
2023/09/10 02:46:49;;;;;;;16.33;14.63;;;16.50;99.90;;;-141.84;82.97;20492.72;5038374;28;20316;-59
2023/09/10 02:49:18;;;;;;;17.52;15.73;;;16.50;99.90;;;-141.84;83.22;20506.94;5045463;28;20323;-59
2023/09/10 02:51:48;;;;;;;16.88;15.07;;;16.50;99.90;;;-141.84;83.31;20460.19;5046290;28;20275;-60
2023/09/10 02:54:16;;;;;;;15.90;14.30;;;16.50;99.90;;;-141.84;83.20;20498.81;5045934;28;20226;-60
2023/09/10 02:56:45;;;;;;;16.77;14.70;;;16.50;99.90;;;-141.84;82.99;20478.47;5039251;28;20252;-60
2023/09/10 02:59:20;;;;;;;16.52;14.93;;;16.50;99.90;;;-141.84;82.85;20498.81;5044830;28;20245;-60
2023/09/10 03:01:49;;;;;;;16.20;14.50;;;16.50;99.90;;;-141.84;83.17;20494.75;5046469;28;20666;-59
2023/09/10 03:04:18;;;;;;;16.48;14.88;;;16.40;99.90;;;-141.84;83.37;20484.56;5045549;28;20712;-59
2023/09/10 03:06:50;;;;;;;17.90;15.23;;;16.50;99.90;;;-141.84;83.87;20413.44;5038801;28;20221;-59
2023/09/10 03:09:19;;;;;;;15.52;13.98;;;16.50;99.90;;;-141.84;84.07;20462.22;5045919;28;20696;-59
2023/09/10 03:11:47;;;;;;;18.02;15.40;;;16.50;99.90;;;-141.84;84.21;20452.06;5046056;28;20202;-59
2023/09/10 03:14:16;;;;;;;16.27;14.68;;;16.40;99.90;;;-141.84;84.11;20456.13;5045619;28;20265;-59
2023/09/10 03:16:44;;;;;;;16.38;14.68;;;16.40;99.90;;;-141.84;84.33;20429.69;5038419;28;20723;-61
2023/09/10 03:19:13;;;;;;;17.05;15.18;;;16.40;99.90;;;-141.84;84.55;20437.81;5044951;28;20667;-60
2023/09/10 03:21:41;;;;;;;17.27;15.40;;;16.30;99.90;;;-141.84;84.82;20445.94;5045689;28;20336;-59
2023/09/10 03:24:11;;;;;;;17.02;15.35;;;16.30;99.90;;;-141.84;85.30;20443.91;5045942;28;20565;-59
2023/09/10 03:26:39;;;;;;;15.70;14.20;;;16.30;99.90;;;-141.84;85.60;20435.78;5022231;28;20677;-60
2023/09/10 03:29:07;;;;;;;16.50;14.80;;;16.10;99.90;;;-141.84;85.86;20431.72;5025740;28;20585;-60
2023/09/10 03:31:36;;;;;;;16.67;14.98;;;16.30;99.90;;;-141.84;86.32;20403.25;5024992;28;20262;-59
2023/09/10 03:34:04;;;;;;;18.58;15.75;;;16.20;99.90;;;-141.84;86.68;20435.78;5039484;28;20229;-59
2023/09/10 03:36:32;;;;;;;16.20;14.50;;;16.20;99.90;;;-141.84;86.92;20358.56;5044892;28;20304;-60
2023/09/10 03:39:00;;;;;;;16.50;14.77;;;16.20;99.90;;;-141.84;87.12;20391.06;5037834;28;20246;-59
2023/09/10 03:41:30;;;;;;;17.15;14.75;;;16.20;99.90;;;-141.84;87.35;20413.44;5045329;28;20213;-60
2023/09/10 03:43:59;;;;;;;19.30;14.50;;;16.20;99.90;;;-141.84;87.54;20399.19;5045102;28;20229;-60
2023/09/10 03:46:27;;;;;;;17.42;15.68;;;16.10;99.90;;;-141.84;87.65;20354.47;5044780;28;20249;-59
2023/09/10 03:48:56;;;;;;;16.92;15.07;;;16.10;99.90;;;-141.84;87.58;20350.41;5036909;28;20229;-60
2023/09/10 03:51:24;;;;;;;16.15;14.55;;;16.10;99.90;;;-141.84;87.57;20409.38;5036849;28;20319;-60
2023/09/10 03:53:52;;;;;;;16.60;14.90;;;16.10;99.90;;;-141.84;87.89;20382.94;5028896;28;20233;-60
2023/09/10 03:56:20;;;;;;;18.42;14.93;;;16.00;99.90;;;-141.84;87.77;20421.56;5044104;28;20232;-60
2023/09/10 03:58:50;;;;;;;17.05;14.50;;;16.00;99.90;;;-141.84;87.76;20360.59;5038092;28;20256;-58
2023/09/10 04:01:18;;;;;;;17.67;14.55;;;16.00;99.90;;;-141.84;87.90;20336.19;5044777;28;20229;-59
2023/09/10 04:03:46;;;;;;;16.50;14.80;;;16.00;99.90;;;-141.84;88.13;20395.13;5044738;28;20312;-59
2023/09/10 04:06:15;;;;;;;16.88;15.05;;;15.90;99.90;;;-141.84;88.10;20350.41;5045003;28;20263;-61
2023/09/10 04:08:43;;;;;;;16.50;14.73;;;15.90;99.90;;;-141.84;88.27;20350.41;5037022;28;20205;-60
2023/09/10 04:11:11;;;;;;;16.23;14.40;;;16.00;99.90;;;-141.84;88.33;20344.31;5044563;28;20324;-59
2023/09/10 04:13:39;;;;;;;15.70;13.88;;;15.90;99.90;;;-141.84;88.31;20326.03;5044674;28;20236;-59
2023/09/10 04:16:09;;;;;;;18.42;13.98;;;15.90;99.90;;;-141.84;88.23;20307.72;5043713;28;20320;-59
2023/09/10 04:18:37;;;;;;;14.70;13.30;;;15.90;99.90;;;-141.84;88.35;20321.97;5044514;28;20252;-61
2023/09/10 04:21:06;;;;;;;15.82;14.10;;;15.90;99.90;;;-141.84;88.39;20346.34;5042358;28;20661;-60
2023/09/10 04:23:35;;;;;;;16.52;14.43;;;15.90;99.90;;;-141.84;87.49;20313.84;5044572;28;20217;-65
2023/09/10 04:26:03;;;;;;;16.15;14.45;;;16.00;99.90;;;-141.84;87.15;20334.16;5041974;28;20237;-62
2023/09/10 04:28:31;;;;;;;15.27;13.68;;;15.90;99.90;;;-141.84;87.42;20338.22;5042832;28;20257;-63
2023/09/10 04:31:00;;;;;;;14.88;13.52;;;16.00;99.90;;;-141.84;87.49;20321.97;5035501;28;20536;-60
2023/09/10 04:33:29;;;;;;;16.38;14.68;;;15.90;99.90;;;-141.84;87.32;20317.91;5042565;28;20230;-59
2023/09/10 04:35:58;;;;;;;16.55;13.77;;;16.00;99.90;;;-141.84;87.17;20350.41;5042359;28;20260;-59
2023/09/10 04:38:26;;;;;;;14.98;13.00;;;16.00;99.90;;;-141.84;87.46;20346.34;5036837;28;20642;-59
2023/09/10 04:40:55;;;;;;;16.50;14.85;;;16.00;99.90;;;-141.84;87.17;20395.13;5015273;28;20256;-58
2023/09/10 04:43:23;;;;;;;16.00;14.23;;;16.00;99.90;;;-141.84;86.89;20344.31;5022853;28;20312;-60
2023/09/10 04:45:51;;;;;;;18.08;13.80;;;16.00;99.90;;;-141.84;86.27;20395.13;5022856;28;20325;-59
2023/09/10 04:48:20;;;;;;;15.10;13.52;;;16.10;99.90;;;-141.84;86.27;20360.59;5035806;28;20248;-58
2023/09/10 04:50:49;;;;;;;15.32;13.88;;;16.10;99.90;;;-141.84;86.71;20340.25;5035047;28;20240;-60
2023/09/10 04:53:18;;;;;;;16.58;14.77;;;16.10;99.90;;;-141.84;86.02;20362.63;5042297;28;20290;-57
2023/09/10 04:55:53;;;;;;;16.10;14.25;;;16.10;99.90;;;-141.84;86.05;20342.28;5042295;28;20244;-59
2023/09/10 04:58:22;;;;;;;19.70;14.80;;;16.10;99.90;;;-141.84;86.41;20374.81;5042200;28;20252;-60
2023/09/10 05:00:51;;;;;;;15.68;13.88;;;16.00;99.90;;;-141.84;86.18;20344.31;5035000;28;20301;-59
2023/09/10 05:03:20;;;;;;;15.32;13.75;;;16.10;99.90;;;-141.84;86.65;20354.47;5042681;28;20231;-60
2023/09/10 05:05:58;;;;;;;15.73;13.38;;;16.10;99.90;;;-141.84;87.06;20374.81;5042359;28;20216;-60
2023/09/10 05:08:26;;;;;;;18.05;14.38;;;16.10;99.90;;;-141.84;86.85;20336.19;5042564;28;20298;-59
2023/09/10 05:10:55;;;;;;;16.98;13.05;;;16.10;99.90;;;-141.84;86.50;20354.47;5033663;28;20229;-61
2023/09/10 05:13:24;;;;;;;17.98;13.98;;;16.10;99.90;;;-141.84;85.84;20387.00;5042294;28;20233;-61
2023/09/10 05:15:54;;;;;;;15.63;13.88;;;16.20;99.90;;;-141.84;85.28;20358.56;5042345;28;20237;-60
2023/09/10 05:18:23;;;;;;;17.52;13.68;;;16.20;99.90;;;-141.84;85.12;20376.84;5041774;28;20225;-59
2023/09/10 05:20:53;;;;;;;14.70;13.20;;;16.30;99.90;;;-141.84;84.77;20403.25;5034529;28;20422;-59
2023/09/10 05:23:23;;;;;;;15.15;13.07;;;16.30;99.90;;;-141.84;84.72;20415.47;5041944;28;20256;-59
2023/09/10 05:25:51;;;;;;;14.65;13.20;;;16.40;99.90;;;-141.84;84.42;20429.69;5041694;28;20225;-59
2023/09/10 05:28:19;;;;;;;16.20;13.43;;;16.50;99.90;;;-141.84;83.81;20480.50;5045315;28;20228;-59
2023/09/10 05:30:47;;;;;;;14.73;13.23;;;16.70;99.90;;;-141.84;81.34;20492.72;5038278;28;20306;-60
2023/09/10 05:33:15;;;;;;;14.65;13.13;;;16.80;99.90;;;-141.84;79.98;20571.97;5046051;28;20723;-59
2023/09/10 05:35:44;;;;;;;18.38;13.50;;;16.90;99.90;;;-141.84;79.25;20557.75;5031148;28;20229;-60
2023/09/10 05:38:14;;;;;;;15.45;12.63;;;17.10;99.90;;;-141.84;77.42;20637.03;5025443;28;20238;-61
2023/09/10 05:40:42;;;;;;;16.20;13.02;;;17.20;99.90;;;-141.84;77.42;20639.06;5018711;28;20225;-61
2023/09/10 05:43:11;;;;;;;16.08;12.25;;;17.40;99.90;;;-141.84;78.32;20614.66;5027706;28;20240;-60
2023/09/10 05:45:39;;;;;;;14.20;12.73;;;17.40;99.90;;;-141.84;78.29;20600.44;5046062;28;20253;-59
2023/09/10 05:48:07;;;;;;;14.90;13.30;;;17.50;99.90;;;-141.84;76.64;20691.91;5045521;28;20202;-61
2023/09/10 05:50:35;;;;;;;19.33;13.00;;;17.60;99.90;;;-141.84;76.20;20724.44;5046091;28;20574;-60
2023/09/10 05:53:04;;;;;;;15.20;13.60;;;17.70;99.90;;;-141.84;75.70;20726.47;5039532;28;20245;-60
2023/09/10 05:55:34;;;;;;;14.63;13.18;;;17.70;99.90;;;-141.84;75.17;20720.38;5044969;28;20225;-59
2023/09/10 05:58:02;;;;;;;15.55;12.80;;;17.80;99.90;;;-141.84;76.26;20722.41;5044946;28;20645;-60
2023/09/10 06:00:30;;;;;;;14.48;12.80;;;17.80;99.90;;;-141.84;76.35;20714.28;5045722;28;20265;-60
2023/09/10 06:02:58;;;;;;;15.82;13.30;;;17.90;99.90;;;-141.84;76.26;20736.63;5038101;28;20257;-59
2023/09/10 06:05:27;;;;;;;14.90;12.40;;;17.90;99.90;;;-141.84;75.77;20718.34;5046211;28;20208;-62
2023/09/10 06:07:55;;;;;;;13.57;12.15;;;17.90;99.90;;;-141.84;76.32;20722.41;5045350;28;20247;-59
2023/09/10 06:10:23;;;;;;;14.85;12.55;;;17.90;99.90;;;-141.84;75.29;20765.09;5044748;28;20713;-59
2023/09/10 06:12:53;;;;;;;16.52;12.65;;;18.00;99.90;;;-141.84;74.25;20797.63;5037643;28;20233;-59
2023/09/10 06:15:21;;;;;;;14.00;12.60;;;18.10;99.90;;;-141.84;74.54;20805.75;5046692;28;20233;-58
2023/09/10 06:17:50;;;;;;;15.02;12.50;;;18.20;99.90;;;-141.84;74.58;20826.09;5047154;28;20291;-59
2023/09/10 06:20:18;;;;;;;16.92;13.07;;;18.20;99.90;;;-141.84;73.98;20844.38;5045822;28;20236;-62
2023/09/10 06:22:46;;;;;;;14.10;12.10;;;18.30;99.90;;;-141.84;72.86;20878.94;5037818;28;20225;-60
2023/09/10 06:25:15;;;;;;;13.65;11.95;;;18.40;99.90;;;-141.84;73.58;20826.09;5046150;28;20331;-59
2023/09/10 06:27:43;;;;;;;12.88;11.57;;;18.50;99.90;;;-141.84;73.15;20866.75;5045668;28;20235;-58
2023/09/10 06:30:13;;;;;;;13.25;11.70;;;18.50;99.90;;;-141.84;73.46;20854.53;5045802;28;20278;-60
2023/09/10 06:32:42;;;;;;;12.60;11.30;;;18.50;99.90;;;-141.84;73.59;20848.44;5019495;28;20251;-59
2023/09/10 06:35:10;;;;;;;13.05;11.80;;;18.60;99.90;;;-141.84;73.57;20852.50;5025208;28;20230;-59
2023/09/10 06:37:40;;;;;;;13.48;12.20;;;18.60;99.90;;;-141.84;73.38;20883.00;5026649;28;20226;-59
2023/09/10 06:40:10;;;;;;;13.07;11.77;;;18.60;99.90;;;-141.84;73.25;20911.47;5034067;28;20308;-60
2023/09/10 06:42:39;;;;;;;13.48;11.60;;;18.70;99.90;;;-141.84;72.61;20946.03;5044546;28;20760;-60
2023/09/10 06:45:07;;;;;;;11.32;10.20;;;18.80;99.90;;;-141.84;73.59;20946.03;5042843;28;20296;-60
2023/09/10 06:47:37;;;;;;;11.18;10.18;;;18.90;99.90;;;-141.84;73.88;20925.69;5046479;28;20213;-59
2023/09/10 06:50:07;;;;;;;14.32;11.05;;;18.90;99.90;;;-141.84;73.55;20974.50;5045969;28;20311;-59
2023/09/10 06:52:35;;;;;;;12.75;11.55;;;18.90;99.90;;;-141.84;72.83;20952.13;5045854;28;20258;-58
2023/09/10 06:55:04;;;;;;;12.57;11.20;;;19.00;99.90;;;-141.84;72.13;20954.16;5039559;28;20233;-59
2023/09/10 06:57:32;;;;;;;12.35;11.15;;;19.10;99.90;;;-141.84;71.49;20954.16;5044732;28;20693;-59
2023/09/10 07:00:00;;;;;;;12.48;11.27;;;19.10;99.90;;;-141.84;70.53;20972.47;5045851;28;20243;-59
2023/09/10 07:02:29;;;;;;;12.82;11.60;;;19.20;99.90;;;-141.84;70.15;21047.69;5046153;28;20214;-61
2023/09/10 07:04:58;;;;;;;11.27;10.18;;;19.30;99.90;;;-141.84;69.20;21124.94;5038526;28;20257;-60
2023/09/10 07:07:27;;;;;;;11.90;10.65;;;19.40;99.90;;;-141.84;68.31;21253.00;5045846;28;20258;-59
2023/09/10 07:09:55;;;;;;;11.60;10.25;;;19.70;99.90;;;-141.84;67.76;21224.56;5045769;28;20233;-59
2023/09/10 07:12:23;;;;;;;10.95;9.95;;;19.80;99.90;;;-141.84;67.77;21208.28;5044966;28;20256;-59
2023/09/10 07:14:51;;;;;;;11.55;10.10;;;19.90;99.90;;;-141.84;67.56;21204.22;5038820;28;20244;-59
2023/09/10 07:17:20;;;;;;;11.25;10.05;;;19.90;99.90;;;-141.84;67.93;21208.28;5044991;28;20304;-59
2023/09/10 07:19:48;;;;;;;11.70;10.52;;;20.00;99.90;;;-141.84;67.60;21192.03;5045327;28;20229;-62
2023/09/10 07:22:18;;;;;;;11.48;9.98;;;20.00;99.90;;;-141.84;67.87;21228.63;5045147;28;20233;-59
2023/09/10 07:24:46;;;;;;;11.10;9.98;;;20.00;99.90;;;-141.84;67.52;21232.69;5038343;28;20256;-60
2023/09/10 07:27:14;;;;;;;10.80;9.68;;;20.10;99.90;;;-141.84;67.43;21275.38;5045547;28;20236;-59
2023/09/10 07:29:43;;;;;;;10.50;9.45;;;20.10;99.90;;;-141.84;65.67;21309.94;5045992;28;20752;-60
2023/09/10 07:32:11;;;;;;;10.35;9.35;;;20.20;99.90;;;-141.84;65.68;21326.22;5045034;28;20256;-59
2023/09/10 07:34:39;;;;;;;11.63;10.00;;;20.30;99.90;;;-141.84;65.44;21350.59;5044246;28;20229;-59
2023/09/10 07:37:07;;;;;;;9.55;8.68;;;20.40;99.90;;;-141.84;65.82;21358.75;5043117;28;20324;-59
2023/09/10 07:39:40;;;;;;;9.88;8.93;;;20.40;99.90;;;-141.84;65.82;21375.00;5034736;28;20602;-60
2023/09/10 07:42:08;;;;;;;9.95;8.95;;;20.50;99.90;;;-141.84;65.75;21340.44;5043797;28;20210;-59
2023/09/10 07:44:36;;;;;;;10.52;8.85;;;20.60;99.90;;;-141.84;65.37;21393.31;5045141;28;20292;-59
2023/09/10 07:47:06;;;;;;;9.55;8.55;;;20.60;99.90;;;-141.84;65.21;21427.88;5041037;28;20343;-59
2023/09/10 07:49:34;;;;;;;9.30;8.43;;;20.70;99.90;;;-141.84;64.77;21450.22;5044915;28;20237;-59
2023/09/10 07:52:05;;;;;;;9.48;8.65;;;20.80;99.90;;;-141.84;63.85;21480.72;5043686;28;20222;-59
2023/09/10 07:54:35;;;;;;;9.60;8.65;;;20.90;99.90;;;-141.84;63.08;21521.41;5044731;28;20259;-61
2023/09/10 07:57:05;;;;;;;9.80;8.90;;;21.10;99.90;;;-141.84;63.21;21574.25;5038473;28;20233;-58
2023/09/10 07:59:33;;;;;;;9.20;8.07;;;21.10;99.90;;;-141.84;63.47;21545.78;5045578;28;20259;-60
2023/09/10 08:02:02;;;;;;;10.10;9.10;;;21.20;99.90;;;-141.84;62.93;21562.06;5045192;28;20237;-60
2023/09/10 08:04:30;;;;;;;10.10;8.82;;;21.30;99.90;;;-141.84;62.72;21566.13;5044709;28;20785;-59
2023/09/10 08:07:00;;;;;;;9.77;8.50;;;21.40;99.90;;;-141.84;62.46;21596.63;5038127;28;20232;-59
2023/09/10 08:09:30;;;;;;;9.70;8.70;;;21.40;99.90;;;-141.84;62.35;21588.50;5045364;28;20248;-60
2023/09/10 08:11:58;;;;;;;9.48;8.38;;;21.50;99.90;;;-141.84;62.06;21647.47;5044394;28;20213;-60
2023/09/10 08:14:28;;;;;;;9.07;7.93;;;21.60;99.90;;;-141.84;62.04;21692.19;5044480;28;20620;-58
2023/09/10 08:16:56;;;;;;;10.38;8.45;;;21.70;99.90;;;-141.84;61.90;21684.06;5037152;28;20838;-60
2023/09/10 08:19:25;;;;;;;8.25;7.55;;;21.80;99.90;;;-141.84;62.13;21710.50;5044582;28;20243;-60
2023/09/10 08:21:53;;;;;;;9.95;8.93;;;21.90;99.90;;;-141.84;61.26;21720.66;5044883;28;20229;-59
2023/09/10 08:24:22;;;;;;;9.30;8.02;;;22.00;99.90;;;-141.84;61.08;21757.25;5044573;28;20229;-60
2023/09/10 08:26:52;;;;;;;8.65;7.85;;;22.10;99.90;;;-141.84;61.22;21785.72;5037339;28;20209;-60
2023/09/10 08:29:20;;;;;;;8.68;7.88;;;22.10;99.90;;;-141.84;60.77;21799.97;5043874;28;20233;-59
2023/09/10 08:31:49;;;;;;;9.05;8.18;;;22.20;99.90;;;-141.84;60.84;21842.66;5044028;28;20222;-59
2023/09/10 08:34:18;;;;;;;8.98;8.18;;;22.30;99.90;;;-141.84;60.21;21871.13;5044353;28;20235;-59
2023/09/10 08:36:46;;;;;;;8.65;7.75;;;22.30;99.90;;;-141.84;60.42;21875.19;5037054;28;20302;-59
2023/09/10 08:39:14;;;;;;;7.57;6.88;;;22.50;99.90;;;-141.84;59.93;21899.59;5043898;28;20209;-60
2023/09/10 08:41:52;;;;;;;8.77;7.47;;;22.60;99.90;;;-141.84;59.96;21921.97;5043872;28;20287;-60
2023/09/10 08:44:23;;;;;;;10.27;8.00;;;22.70;99.90;;;-141.84;59.85;21950.44;5044326;28;20771;-59
2023/09/10 08:46:56;;;;;;;8.57;7.78;;;22.80;99.90;;;-141.84;59.40;22005.34;5037105;28;20224;-59
2023/09/10 08:49:27;;;;;;;9.20;8.30;;;22.90;99.90;;;-141.84;59.03;22019.56;5044114;28;20758;-59
2023/09/10 08:51:57;;;;;;;9.75;8.70;;;23.00;99.90;;;-141.84;58.46;22033.81;5043376;28;20296;-59
2023/09/10 08:54:25;;;;;;;8.40;7.55;;;23.10;99.90;;;-141.84;58.25;22074.47;5043580;28;20264;-61
2023/09/10 08:56:56;;;;;;;8.48;7.68;;;23.20;99.90;;;-141.84;58.48;22086.69;5037272;28;20693;-59
2023/09/10 08:59:24;;;;;;;9.88;7.88;;;23.20;99.90;;;-141.84;57.96;22117.19;5043368;28;20295;-59
2023/09/10 09:01:56;;;;;;;8.25;7.30;;;23.30;99.90;;;-141.84;57.76;22113.13;5043047;28;20225;-60
2023/09/10 09:04:27;;;;;;;8.48;7.68;;;23.40;99.90;;;-141.84;57.93;22141.59;5042872;28;20312;-60
2023/09/10 09:07:01;;;;;;;8.48;7.68;;;23.50;99.90;;;-141.84;57.86;22163.94;5036846;28;20240;-58
2023/09/10 09:09:39;;;;;;;7.78;7.03;;;23.60;99.90;;;-141.84;57.66;22180.22;5044108;28;20224;-60
2023/09/10 09:12:10;;;;;;;11.30;8.30;;;23.60;99.90;;;-141.84;57.45;22180.22;5043715;28;20667;-60
2023/09/10 09:14:42;;;;;;;7.65;6.95;;;23.70;99.90;;;-141.84;56.98;22212.75;5043703;28;20309;-59
2023/09/10 09:17:14;;;;;;;9.20;7.80;;;23.90;99.90;;;-141.84;56.70;22306.31;5043331;28;20231;-60
2023/09/10 09:19:44;;;;;;;8.05;7.35;;;23.80;99.90;;;-141.84;56.58;22275.81;5043498;28;20233;-59
2023/09/10 09:22:20;;;;;;;7.80;7.10;;;23.90;99.90;;;-141.84;56.47;22324.59;5043878;28;20217;-58
2023/09/10 09:24:49;;;;;;;8.55;7.18;;;24.00;99.90;;;-141.84;54.79;22353.09;5037048;28;20274;-61
2023/09/10 09:27:18;;;;;;;6.70;6.07;;;24.10;99.90;;;-141.84;53.96;22385.63;5043241;28;21028;-59
2023/09/10 09:29:48;;;;;;;7.25;6.57;;;24.20;99.90;;;-141.84;54.38;22401.88;5041642;28;20225;-58
2023/09/10 09:32:17;;;;;;;7.80;7.05;;;24.30;99.90;;;-141.84;54.03;22399.84;5041519;28;20231;-60
2023/09/10 09:34:45;;;;;;;7.25;6.50;;;24.30;99.90;;;-141.84;53.82;22456.81;5034032;28;20229;-59
2023/09/10 09:37:20;;;;;;;6.63;6.03;;;24.40;99.90;;;-141.84;53.97;22426.28;5041653;28;20604;-61
2023/09/10 09:39:51;;;;;;;8.85;6.80;;;24.50;99.90;;;-141.84;53.15;22436.47;5041632;28;20283;-59
2023/09/10 09:42:23;;;;;;;7.38;6.53;;;24.50;99.90;;;-141.84;53.04;22483.25;5041507;28;20225;-60
2023/09/10 09:44:51;;;;;;;7.00;6.30;;;24.70;99.90;;;-141.84;53.15;22479.16;5034900;28;20205;-60
2023/09/10 09:47:20;;;;;;;6.63;6.03;;;24.60;99.90;;;-141.84;52.45;22525.94;5039580;28;20663;-60
2023/09/10 09:49:49;;;;;;;7.38;6.43;;;24.70;99.90;;;-141.84;52.63;22562.56;5039620;28;20228;-60
2023/09/10 09:52:19;;;;;;;7.63;6.90;;;24.80;99.90;;;-141.84;52.70;22534.09;5040701;28;20720;-59
2023/09/10 09:54:48;;;;;;;7.97;7.18;;;24.80;99.90;;;-141.84;52.83;22546.28;5033544;28;20265;-60
2023/09/10 09:57:17;;;;;;;7.68;6.88;;;24.80;99.90;;;-141.84;53.22;22601.19;5041435;28;20223;-59
2023/09/10 09:59:45;;;;;;;7.53;6.82;;;24.90;99.90;;;-141.84;52.39;22639.84;5042055;28;20775;-60
2023/09/10 10:02:16;;;;;;;7.15;6.50;;;25.00;99.90;;;-141.84;52.28;22623.56;5041774;28;20319;-60
2023/09/10 10:04:46;;;;;;;6.82;6.22;;;25.00;99.90;;;-141.84;52.42;22613.41;5033308;28;20233;-59
2023/09/10 10:07:15;;;;;;;7.85;7.07;;;25.20;99.90;;;-141.84;52.53;22629.66;5042047;28;20332;-60